sensor_id;sensor_type;location;lat;lon;timestamp;P1;durP1;ratioP1;P2;durP2;ratioP2
44985;SDS011;30721;49.380;7.736;2023-08-06T00:02:02;2.65;;;2.03;;
44985;SDS011;30721;49.380;7.736;2023-08-06T00:04:28;3.90;;;1.85;;
44985;SDS011;30721;49.380;7.736;2023-08-06T00:06:53;2.35;;;2.03;;
44985;SDS011;30721;49.380;7.736;2023-08-06T00:09:18;2.30;;;1.60;;
44985;SDS011;30721;49.380;7.736;2023-08-06T00:11:44;2.20;;;1.63;;
44985;SDS011;30721;49.380;7.736;2023-08-06T00:14:11;2.50;;;1.85;;
44985;SDS011;30721;49.380;7.736;2023-08-06T00:16:37;2.35;;;1.80;;
44985;SDS011;30721;49.380;7.736;2023-08-06T00:19:02;2.35;;;2.00;;
44985;SDS011;30721;49.380;7.736;2023-08-06T00:21:28;3.03;;;1.90;;
44985;SDS011;30721;49.380;7.736;2023-08-06T00:23:53;2.67;;;1.88;;
44985;SDS011;30721;49.380;7.736;2023-08-06T00:26:18;3.10;;;1.90;;
44985;SDS011;30721;49.380;7.736;2023-08-06T00:28:44;2.00;;;1.63;;
44985;SDS011;30721;49.380;7.736;2023-08-06T00:31:10;2.95;;;1.90;;
44985;SDS011;30721;49.380;7.736;2023-08-06T00:33:35;3.60;;;1.55;;
44985;SDS011;30721;49.380;7.736;2023-08-06T00:36:00;3.05;;;1.70;;
44985;SDS011;30721;49.380;7.736;2023-08-06T00:38:26;2.53;;;1.80;;
44985;SDS011;30721;49.380;7.736;2023-08-06T00:40:51;3.38;;;2.17;;
44985;SDS011;30721;49.380;7.736;2023-08-06T00:43:16;1.80;;;1.35;;
44985;SDS011;30721;49.380;7.736;2023-08-06T00:45:42;2.28;;;1.77;;
44985;SDS011;30721;49.380;7.736;2023-08-06T00:48:08;2.75;;;1.45;;
44985;SDS011;30721;49.380;7.736;2023-08-06T00:50:33;11.23;;;1.90;;
44985;SDS011;30721;49.380;7.736;2023-08-06T00:52:59;4.70;;;1.58;;
44985;SDS011;30721;49.380;7.736;2023-08-06T00:55:24;1.45;;;1.30;;
44985;SDS011;30721;49.380;7.736;2023-08-06T00:57:50;2.83;;;1.52;;
44985;SDS011;30721;49.380;7.736;2023-08-06T01:00:24;2.47;;;1.63;;
44985;SDS011;30721;49.380;7.736;2023-08-06T01:02:50;2.33;;;1.67;;
44985;SDS011;30721;49.380;7.736;2023-08-06T01:05:15;3.10;;;1.33;;
44985;SDS011;30721;49.380;7.736;2023-08-06T01:07:46;3.30;;;1.50;;
44985;SDS011;30721;49.380;7.736;2023-08-06T01:15:49;2.15;;;1.60;;
44985;SDS011;30721;49.380;7.736;2023-08-06T01:18:15;2.60;;;1.77;;
44985;SDS011;30721;49.380;7.736;2023-08-06T01:20:40;1.45;;;1.35;;
44985;SDS011;30721;49.380;7.736;2023-08-06T01:23:06;2.88;;;1.60;;
44985;SDS011;30721;49.380;7.736;2023-08-06T01:25:37;3.60;;;1.85;;
44985;SDS011;30721;49.380;7.736;2023-08-06T01:28:16;3.38;;;1.73;;
44985;SDS011;30721;49.380;7.736;2023-08-06T01:30:46;3.03;;;1.55;;
44985;SDS011;30721;49.380;7.736;2023-08-06T01:33:14;2.60;;;1.50;;
44985;SDS011;30721;49.380;7.736;2023-08-06T01:35:42;2.42;;;1.27;;
44985;SDS011;30721;49.380;7.736;2023-08-06T01:38:07;2.58;;;1.48;;
44985;SDS011;30721;49.380;7.736;2023-08-06T01:40:33;2.97;;;1.58;;
44985;SDS011;30721;49.380;7.736;2023-08-06T01:42:59;1.88;;;1.50;;
44985;SDS011;30721;49.380;7.736;2023-08-06T01:45:24;2.03;;;1.60;;
44985;SDS011;30721;49.380;7.736;2023-08-06T01:47:50;2.08;;;1.65;;
44985;SDS011;30721;49.380;7.736;2023-08-06T01:50:15;1.88;;;1.45;;
44985;SDS011;30721;49.380;7.736;2023-08-06T01:52:41;3.20;;;1.70;;
44985;SDS011;30721;49.380;7.736;2023-08-06T01:55:06;4.75;;;2.15;;
44985;SDS011;30721;49.380;7.736;2023-08-06T01:57:32;2.92;;;1.83;;
44985;SDS011;30721;49.380;7.736;2023-08-06T01:59:58;5.25;;;2.00;;
44985;SDS011;30721;49.380;7.736;2023-08-06T02:02:23;2.67;;;1.70;;
44985;SDS011;30721;49.380;7.736;2023-08-06T02:04:48;3.65;;;1.83;;
44985;SDS011;30721;49.380;7.736;2023-08-06T02:07:14;3.25;;;1.50;;
44985;SDS011;30721;49.380;7.736;2023-08-06T02:09:39;2.10;;;1.60;;
44985;SDS011;30721;49.380;7.736;2023-08-06T02:12:05;2.10;;;1.33;;
44985;SDS011;30721;49.380;7.736;2023-08-06T02:14:31;4.45;;;1.52;;
44985;SDS011;30721;49.380;7.736;2023-08-06T02:16:56;2.33;;;1.73;;
44985;SDS011;30721;49.380;7.736;2023-08-06T02:19:22;3.50;;;1.58;;
44985;SDS011;30721;49.380;7.736;2023-08-06T02:21:47;4.72;;;1.70;;
44985;SDS011;30721;49.380;7.736;2023-08-06T02:24:12;3.88;;;1.65;;
44985;SDS011;30721;49.380;7.736;2023-08-06T02:26:38;2.53;;;1.65;;
44985;SDS011;30721;49.380;7.736;2023-08-06T02:29:03;4.05;;;1.40;;
44985;SDS011;30721;49.380;7.736;2023-08-06T02:31:29;3.22;;;1.20;;
44985;SDS011;30721;49.380;7.736;2023-08-06T02:33:54;4.60;;;1.73;;
44985;SDS011;30721;49.380;7.736;2023-08-06T02:36:20;2.88;;;1.58;;
44985;SDS011;30721;49.380;7.736;2023-08-06T02:38:45;3.58;;;1.75;;
44985;SDS011;30721;49.380;7.736;2023-08-06T02:41:11;2.58;;;1.30;;
44985;SDS011;30721;49.380;7.736;2023-08-06T02:43:36;4.53;;;1.63;;
44985;SDS011;30721;49.380;7.736;2023-08-06T02:46:01;1.10;;;0.80;;
44985;SDS011;30721;49.380;7.736;2023-08-06T02:48:27;1.92;;;1.20;;
44985;SDS011;30721;49.380;7.736;2023-08-06T02:50:56;1.63;;;0.63;;
44985;SDS011;30721;49.380;7.736;2023-08-06T02:53:22;1.17;;;1.00;;
44985;SDS011;30721;49.380;7.736;2023-08-06T02:55:48;1.83;;;0.90;;
44985;SDS011;30721;49.380;7.736;2023-08-06T02:58:16;1.45;;;0.57;;
44985;SDS011;30721;49.380;7.736;2023-08-06T03:00:42;2.00;;;0.90;;
44985;SDS011;30721;49.380;7.736;2023-08-06T03:03:09;0.60;;;0.50;;
44985;SDS011;30721;49.380;7.736;2023-08-06T03:05:34;0.98;;;0.70;;
44985;SDS011;30721;49.380;7.736;2023-08-06T03:07:59;1.83;;;0.65;;
44985;SDS011;30721;49.380;7.736;2023-08-06T03:10:25;2.53;;;0.60;;
44985;SDS011;30721;49.380;7.736;2023-08-06T03:12:51;3.22;;;1.08;;
44985;SDS011;30721;49.380;7.736;2023-08-06T03:15:18;1.45;;;0.70;;
44985;SDS011;30721;49.380;7.736;2023-08-06T03:17:44;1.95;;;0.57;;
44985;SDS011;30721;49.380;7.736;2023-08-06T03:20:09;1.17;;;0.70;;
44985;SDS011;30721;49.380;7.736;2023-08-06T03:22:35;3.60;;;0.60;;
44985;SDS011;30721;49.380;7.736;2023-08-06T03:25:01;1.17;;;0.68;;
44985;SDS011;30721;49.380;7.736;2023-08-06T03:27:26;1.08;;;0.55;;
44985;SDS011;30721;49.380;7.736;2023-08-06T03:29:52;1.45;;;0.60;;
44985;SDS011;30721;49.380;7.736;2023-08-06T03:32:35;1.00;;;0.60;;
44985;SDS011;30721;49.380;7.736;2023-08-06T03:35:00;1.17;;;0.77;;
44985;SDS011;30721;49.380;7.736;2023-08-06T03:37:26;1.65;;;0.60;;
44985;SDS011;30721;49.380;7.736;2023-08-06T03:39:51;1.30;;;0.60;;
44985;SDS011;30721;49.380;7.736;2023-08-06T03:42:16;0.80;;;0.70;;
44985;SDS011;30721;49.380;7.736;2023-08-06T03:44:42;1.30;;;0.30;;
44985;SDS011;30721;49.380;7.736;2023-08-06T03:47:07;1.58;;;0.50;;
44985;SDS011;30721;49.380;7.736;2023-08-06T03:49:33;0.38;;;0.38;;
44985;SDS011;30721;49.380;7.736;2023-08-06T03:51:58;1.38;;;0.50;;
44985;SDS011;30721;49.380;7.736;2023-08-06T03:54:24;0.80;;;0.80;;
44985;SDS011;30721;49.380;7.736;2023-08-06T03:56:49;0.52;;;0.50;;
44985;SDS011;30721;49.380;7.736;2023-08-06T03:59:15;0.73;;;0.50;;
44985;SDS011;30721;49.380;7.736;2023-08-06T04:01:40;1.70;;;0.40;;
44985;SDS011;30721;49.380;7.736;2023-08-06T04:04:05;0.70;;;0.52;;
44985;SDS011;30721;49.380;7.736;2023-08-06T04:06:31;0.55;;;0.32;;
44985;SDS011;30721;49.380;7.736;2023-08-06T04:08:56;0.45;;;0.30;;
44985;SDS011;30721;49.380;7.736;2023-08-06T04:11:21;1.23;;;0.50;;
44985;SDS011;30721;49.380;7.736;2023-08-06T04:13:47;0.60;;;0.40;;
44985;SDS011;30721;49.380;7.736;2023-08-06T04:16:12;2.05;;;0.45;;
44985;SDS011;30721;49.380;7.736;2023-08-06T04:18:40;1.20;;;0.30;;
44985;SDS011;30721;49.380;7.736;2023-08-06T04:21:06;1.23;;;0.40;;
44985;SDS011;30721;49.380;7.736;2023-08-06T04:23:31;0.40;;;0.30;;
44985;SDS011;30721;49.380;7.736;2023-08-06T04:25:57;0.95;;;0.82;;
44985;SDS011;30721;49.380;7.736;2023-08-06T04:28:23;1.55;;;0.77;;
44985;SDS011;30721;49.380;7.736;2023-08-06T04:30:48;1.75;;;0.50;;
44985;SDS011;30721;49.380;7.736;2023-08-06T04:33:13;2.15;;;0.50;;
44985;SDS011;30721;49.380;7.736;2023-08-06T04:35:39;0.57;;;0.40;;
44985;SDS011;30721;49.380;7.736;2023-08-06T04:38:04;0.52;;;0.43;;
44985;SDS011;30721;49.380;7.736;2023-08-06T04:40:30;0.90;;;0.52;;
44985;SDS011;30721;49.380;7.736;2023-08-06T04:42:58;1.52;;;0.40;;
44985;SDS011;30721;49.380;7.736;2023-08-06T04:45:23;0.77;;;0.47;;
44985;SDS011;30721;49.380;7.736;2023-08-06T04:47:49;1.27;;;0.40;;
44985;SDS011;30721;49.380;7.736;2023-08-06T04:50:14;0.50;;;0.40;;
44985;SDS011;30721;49.380;7.736;2023-08-06T04:52:40;3.17;;;0.40;;
44985;SDS011;30721;49.380;7.736;2023-08-06T04:55:05;0.98;;;0.70;;
44985;SDS011;30721;49.380;7.736;2023-08-06T04:57:31;2.05;;;0.50;;
44985;SDS011;30721;49.380;7.736;2023-08-06T04:59:56;1.08;;;0.47;;
44985;SDS011;30721;49.380;7.736;2023-08-06T05:02:22;0.90;;;0.28;;
44985;SDS011;30721;49.380;7.736;2023-08-06T05:04:47;0.40;;;0.40;;
44985;SDS011;30721;49.380;7.736;2023-08-06T05:07:12;0.57;;;0.50;;
44985;SDS011;30721;49.380;7.736;2023-08-06T05:09:38;0.85;;;0.50;;
44985;SDS011;30721;49.380;7.736;2023-08-06T05:12:03;1.05;;;0.40;;
44985;SDS011;30721;49.380;7.736;2023-08-06T05:14:29;1.23;;;0.50;;
44985;SDS011;30721;49.380;7.736;2023-08-06T05:16:55;0.50;;;0.50;;
44985;SDS011;30721;49.380;7.736;2023-08-06T05:19:20;0.60;;;0.50;;
44985;SDS011;30721;49.380;7.736;2023-08-06T05:21:45;0.82;;;0.40;;
44985;SDS011;30721;49.380;7.736;2023-08-06T05:24:11;0.50;;;0.47;;
44985;SDS011;30721;49.380;7.736;2023-08-06T05:26:37;0.73;;;0.57;;
44985;SDS011;30721;49.380;7.736;2023-08-06T05:29:02;1.45;;;0.60;;
44985;SDS011;30721;49.380;7.736;2023-08-06T05:31:28;2.95;;;0.93;;
44985;SDS011;30721;49.380;7.736;2023-08-06T05:33:54;1.27;;;0.63;;
44985;SDS011;30721;49.380;7.736;2023-08-06T05:36:19;2.17;;;0.60;;
44985;SDS011;30721;49.380;7.736;2023-08-06T05:38:45;0.70;;;0.50;;
44985;SDS011;30721;49.380;7.736;2023-08-06T05:41:10;0.88;;;0.60;;
44985;SDS011;30721;49.380;7.736;2023-08-06T05:43:36;1.05;;;0.85;;
44985;SDS011;30721;49.380;7.736;2023-08-06T05:46:01;0.90;;;0.40;;
44985;SDS011;30721;49.380;7.736;2023-08-06T05:48:26;0.55;;;0.55;;
44985;SDS011;30721;49.380;7.736;2023-08-06T05:50:53;2.88;;;0.60;;
44985;SDS011;30721;49.380;7.736;2023-08-06T05:53:18;0.85;;;0.50;;
44985;SDS011;30721;49.380;7.736;2023-08-06T05:55:44;1.40;;;0.45;;
44985;SDS011;30721;49.380;7.736;2023-08-06T05:58:10;0.75;;;0.40;;
44985;SDS011;30721;49.380;7.736;2023-08-06T06:00:35;0.38;;;0.32;;
44985;SDS011;30721;49.380;7.736;2023-08-06T06:03:01;0.93;;;0.40;;
44985;SDS011;30721;49.380;7.736;2023-08-06T06:05:27;0.80;;;0.40;;
44985;SDS011;30721;49.380;7.736;2023-08-06T06:07:53;0.50;;;0.50;;
44985;SDS011;30721;49.380;7.736;2023-08-06T06:10:18;0.60;;;0.50;;
44985;SDS011;30721;49.380;7.736;2023-08-06T06:12:44;1.23;;;0.68;;
44985;SDS011;30721;49.380;7.736;2023-08-06T06:15:09;0.70;;;0.70;;
44985;SDS011;30721;49.380;7.736;2023-08-06T06:17:35;0.95;;;0.47;;
44985;SDS011;30721;49.380;7.736;2023-08-06T06:20:00;0.35;;;0.30;;
44985;SDS011;30721;49.380;7.736;2023-08-06T06:22:26;0.50;;;0.30;;
44985;SDS011;30721;49.380;7.736;2023-08-06T06:24:51;0.40;;;0.30;;
44985;SDS011;30721;49.380;7.736;2023-08-06T06:27:16;0.30;;;0.30;;
44985;SDS011;30721;49.380;7.736;2023-08-06T06:29:42;0.20;;;0.20;;
44985;SDS011;30721;49.380;7.736;2023-08-06T06:32:07;0.68;;;0.40;;
44985;SDS011;30721;49.380;7.736;2023-08-06T06:34:33;0.30;;;0.30;;
44985;SDS011;30721;49.380;7.736;2023-08-06T06:36:58;0.30;;;0.30;;
44985;SDS011;30721;49.380;7.736;2023-08-06T06:39:24;0.55;;;0.50;;
44985;SDS011;30721;49.380;7.736;2023-08-06T06:41:49;0.30;;;0.30;;
44985;SDS011;30721;49.380;7.736;2023-08-06T06:44:14;0.73;;;0.30;;
44985;SDS011;30721;49.380;7.736;2023-08-06T06:46:40;1.25;;;0.47;;
44985;SDS011;30721;49.380;7.736;2023-08-06T06:49:06;0.47;;;0.47;;
44985;SDS011;30721;49.380;7.736;2023-08-06T06:51:31;0.82;;;0.70;;
44985;SDS011;30721;49.380;7.736;2023-08-06T06:53:57;2.22;;;0.70;;
44985;SDS011;30721;49.380;7.736;2023-08-06T06:56:22;1.05;;;0.82;;
44985;SDS011;30721;49.380;7.736;2023-08-06T06:58:48;0.88;;;0.75;;
44985;SDS011;30721;49.380;7.736;2023-08-06T07:01:14;1.15;;;0.85;;
44985;SDS011;30721;49.380;7.736;2023-08-06T07:03:40;0.75;;;0.73;;
44985;SDS011;30721;49.380;7.736;2023-08-06T07:06:06;1.17;;;0.95;;
44985;SDS011;30721;49.380;7.736;2023-08-06T07:08:31;3.10;;;1.27;;
44985;SDS011;30721;49.380;7.736;2023-08-06T07:11:04;1.30;;;0.90;;
44985;SDS011;30721;49.380;7.736;2023-08-06T07:13:35;2.95;;;0.90;;
44985;SDS011;30721;49.380;7.736;2023-08-06T07:16:01;5.45;;;0.68;;
44985;SDS011;30721;49.380;7.736;2023-08-06T07:18:26;1.20;;;0.60;;
44985;SDS011;30721;49.380;7.736;2023-08-06T07:20:53;0.60;;;0.60;;
44985;SDS011;30721;49.380;7.736;2023-08-06T07:23:22;1.48;;;0.70;;
44985;SDS011;30721;49.380;7.736;2023-08-06T07:25:49;0.47;;;0.47;;
44985;SDS011;30721;49.380;7.736;2023-08-06T07:28:15;0.50;;;0.50;;
44985;SDS011;30721;49.380;7.736;2023-08-06T07:30:43;1.05;;;0.40;;
44985;SDS011;30721;49.380;7.736;2023-08-06T07:33:09;0.40;;;0.40;;
44985;SDS011;30721;49.380;7.736;2023-08-06T07:35:35;0.57;;;0.57;;
44985;SDS011;30721;49.380;7.736;2023-08-06T07:38:01;0.93;;;0.63;;
44985;SDS011;30721;49.380;7.736;2023-08-06T07:40:26;0.63;;;0.50;;
44985;SDS011;30721;49.380;7.736;2023-08-06T07:42:52;0.90;;;0.60;;
44985;SDS011;30721;49.380;7.736;2023-08-06T07:45:18;1.40;;;0.52;;
44985;SDS011;30721;49.380;7.736;2023-08-06T07:47:44;0.30;;;0.30;;
44985;SDS011;30721;49.380;7.736;2023-08-06T07:50:09;0.50;;;0.50;;
44985;SDS011;30721;49.380;7.736;2023-08-06T07:52:35;0.30;;;0.30;;
44985;SDS011;30721;49.380;7.736;2023-08-06T07:55:01;0.93;;;0.40;;
44985;SDS011;30721;49.380;7.736;2023-08-06T07:57:30;0.40;;;0.32;;
44985;SDS011;30721;49.380;7.736;2023-08-06T07:59:59;0.40;;;0.40;;
44985;SDS011;30721;49.380;7.736;2023-08-06T08:02:25;1.15;;;0.73;;
44985;SDS011;30721;49.380;7.736;2023-08-06T08:04:50;0.20;;;0.20;;
44985;SDS011;30721;49.380;7.736;2023-08-06T08:07:15;1.02;;;0.40;;
44985;SDS011;30721;49.380;7.736;2023-08-06T08:09:41;0.30;;;0.30;;
44985;SDS011;30721;49.380;7.736;2023-08-06T08:12:06;0.30;;;0.30;;
44985;SDS011;30721;49.380;7.736;2023-08-06T08:14:32;0.30;;;0.30;;
44985;SDS011;30721;49.380;7.736;2023-08-06T08:17:03;0.52;;;0.40;;
44985;SDS011;30721;49.380;7.736;2023-08-06T08:19:30;0.43;;;0.40;;
44985;SDS011;30721;49.380;7.736;2023-08-06T08:21:56;0.50;;;0.30;;
44985;SDS011;30721;49.380;7.736;2023-08-06T08:24:22;0.75;;;0.40;;
44985;SDS011;30721;49.380;7.736;2023-08-06T08:26:51;0.50;;;0.40;;
44985;SDS011;30721;49.380;7.736;2023-08-06T08:29:17;0.63;;;0.30;;
44985;SDS011;30721;49.380;7.736;2023-08-06T08:31:42;0.40;;;0.40;;
44985;SDS011;30721;49.380;7.736;2023-08-06T08:34:08;0.40;;;0.40;;
44985;SDS011;30721;49.380;7.736;2023-08-06T08:36:34;0.50;;;0.43;;
44985;SDS011;30721;49.380;7.736;2023-08-06T08:38:59;0.40;;;0.40;;
44985;SDS011;30721;49.380;7.736;2023-08-06T08:41:25;0.80;;;0.80;;
44985;SDS011;30721;49.380;7.736;2023-08-06T08:43:52;0.30;;;0.30;;
44985;SDS011;30721;49.380;7.736;2023-08-06T08:46:19;0.50;;;0.40;;
44985;SDS011;30721;49.380;7.736;2023-08-06T08:48:44;0.40;;;0.30;;
44985;SDS011;30721;49.380;7.736;2023-08-06T08:51:10;0.30;;;0.30;;
44985;SDS011;30721;49.380;7.736;2023-08-06T08:53:36;0.85;;;0.32;;
44985;SDS011;30721;49.380;7.736;2023-08-06T08:56:04;0.50;;;0.50;;
44985;SDS011;30721;49.380;7.736;2023-08-06T08:58:30;0.30;;;0.30;;
44985;SDS011;30721;49.380;7.736;2023-08-06T09:00:56;0.20;;;0.20;;
44985;SDS011;30721;49.380;7.736;2023-08-06T09:03:22;0.40;;;0.35;;
44985;SDS011;30721;49.380;7.736;2023-08-06T09:05:49;0.65;;;0.30;;
44985;SDS011;30721;49.380;7.736;2023-08-06T09:08:18;0.20;;;0.20;;
44985;SDS011;30721;49.380;7.736;2023-08-06T09:10:44;0.20;;;0.20;;
44985;SDS011;30721;49.380;7.736;2023-08-06T09:13:10;0.20;;;0.20;;
44985;SDS011;30721;49.380;7.736;2023-08-06T09:15:37;0.30;;;0.20;;
44985;SDS011;30721;49.380;7.736;2023-08-06T09:18:08;0.75;;;0.30;;
44985;SDS011;30721;49.380;7.736;2023-08-06T09:20:35;0.30;;;0.30;;
44985;SDS011;30721;49.380;7.736;2023-08-06T09:23:09;0.38;;;0.38;;
44985;SDS011;30721;49.380;7.736;2023-08-06T09:25:44;0.30;;;0.30;;
44985;SDS011;30721;49.380;7.736;2023-08-06T09:28:09;0.40;;;0.40;;
44985;SDS011;30721;49.380;7.736;2023-08-06T09:30:38;0.50;;;0.50;;
44985;SDS011;30721;49.380;7.736;2023-08-06T09:33:03;1.25;;;0.30;;
44985;SDS011;30721;49.380;7.736;2023-08-06T09:35:35;0.63;;;0.40;;
44985;SDS011;30721;49.380;7.736;2023-08-06T09:38:07;0.50;;;0.50;;
44985;SDS011;30721;49.380;7.736;2023-08-06T09:40:34;0.73;;;0.45;;
44985;SDS011;30721;49.380;7.736;2023-08-06T09:43:00;0.40;;;0.40;;
44985;SDS011;30721;49.380;7.736;2023-08-06T09:45:30;0.40;;;0.32;;
44985;SDS011;30721;49.380;7.736;2023-08-06T09:48:00;0.75;;;0.40;;
44985;SDS011;30721;49.380;7.736;2023-08-06T09:50:29;0.43;;;0.38;;
44985;SDS011;30721;49.380;7.736;2023-08-06T09:53:01;1.10;;;0.40;;
44985;SDS011;30721;49.380;7.736;2023-08-06T09:55:27;0.47;;;0.30;;
44985;SDS011;30721;49.380;7.736;2023-08-06T09:57:52;0.43;;;0.43;;
44985;SDS011;30721;49.380;7.736;2023-08-06T10:00:18;0.75;;;0.43;;
44985;SDS011;30721;49.380;7.736;2023-08-06T10:02:44;0.40;;;0.40;;
44985;SDS011;30721;49.380;7.736;2023-08-06T10:05:10;0.40;;;0.35;;
44985;SDS011;30721;49.380;7.736;2023-08-06T10:07:36;0.52;;;0.52;;
44985;SDS011;30721;49.380;7.736;2023-08-06T10:10:02;0.75;;;0.50;;
44985;SDS011;30721;49.380;7.736;2023-08-06T10:12:34;1.38;;;0.50;;
44985;SDS011;30721;49.380;7.736;2023-08-06T10:17:29;1.23;;;0.60;;
44985;SDS011;30721;49.380;7.736;2023-08-06T10:19:56;1.20;;;0.55;;
44985;SDS011;30721;49.380;7.736;2023-08-06T10:22:21;1.33;;;0.60;;
44985;SDS011;30721;49.380;7.736;2023-08-06T10:27:40;1.00;;;0.88;;
44985;SDS011;30721;49.380;7.736;2023-08-06T10:32:50;1.48;;;0.57;;
44985;SDS011;30721;49.380;7.736;2023-08-06T10:35:33;1.05;;;0.90;;
44985;SDS011;30721;49.380;7.736;2023-08-06T10:38:04;1.63;;;0.90;;
44985;SDS011;30721;49.380;7.736;2023-08-06T10:40:31;1.38;;;0.98;;
44985;SDS011;30721;49.380;7.736;2023-08-06T10:43:00;1.38;;;0.85;;
44985;SDS011;30721;49.380;7.736;2023-08-06T10:45:27;0.88;;;0.70;;
44985;SDS011;30721;49.380;7.736;2023-08-06T10:47:54;1.15;;;0.90;;
44985;SDS011;30721;49.380;7.736;2023-08-06T10:50:23;0.95;;;0.77;;
44985;SDS011;30721;49.380;7.736;2023-08-06T10:52:49;1.58;;;0.90;;
44985;SDS011;30721;49.380;7.736;2023-08-06T10:55:21;1.65;;;1.35;;
44985;SDS011;30721;49.380;7.736;2023-08-06T10:57:48;0.93;;;0.63;;
44985;SDS011;30721;49.380;7.736;2023-08-06T11:00:13;1.00;;;0.90;;
44985;SDS011;30721;49.380;7.736;2023-08-06T11:02:39;1.83;;;1.00;;
44985;SDS011;30721;49.380;7.736;2023-08-06T11:05:08;1.50;;;1.10;;
44985;SDS011;30721;49.380;7.736;2023-08-06T11:07:34;1.17;;;0.85;;
44985;SDS011;30721;49.380;7.736;2023-08-06T11:10:10;1.23;;;1.00;;
44985;SDS011;30721;49.380;7.736;2023-08-06T11:12:37;1.95;;;1.35;;
44985;SDS011;30721;49.380;7.736;2023-08-06T11:15:03;1.17;;;0.90;;
44985;SDS011;30721;49.380;7.736;2023-08-06T11:17:29;1.42;;;0.82;;
44985;SDS011;30721;49.380;7.736;2023-08-06T11:19:58;2.05;;;1.30;;
44985;SDS011;30721;49.380;7.736;2023-08-06T11:22:28;2.15;;;1.40;;
44985;SDS011;30721;49.380;7.736;2023-08-06T11:24:53;1.83;;;1.60;;
44985;SDS011;30721;49.380;7.736;2023-08-06T11:27:19;1.02;;;0.93;;
44985;SDS011;30721;49.380;7.736;2023-08-06T11:29:45;2.50;;;1.10;;
44985;SDS011;30721;49.380;7.736;2023-08-06T11:32:10;1.10;;;1.10;;
44985;SDS011;30721;49.380;7.736;2023-08-06T11:34:36;0.90;;;0.90;;
44985;SDS011;30721;49.380;7.736;2023-08-06T11:37:02;1.95;;;1.00;;
44985;SDS011;30721;49.380;7.736;2023-08-06T11:39:30;0.68;;;0.68;;
44985;SDS011;30721;49.380;7.736;2023-08-06T11:41:59;1.52;;;0.90;;
44985;SDS011;30721;49.380;7.736;2023-08-06T11:44:29;1.55;;;0.95;;
44985;SDS011;30721;49.380;7.736;2023-08-06T11:46:57;1.27;;;0.95;;
44985;SDS011;30721;49.380;7.736;2023-08-06T11:52:19;2.72;;;1.00;;
44985;SDS011;30721;49.380;7.736;2023-08-06T11:57:43;1.25;;;1.10;;
44985;SDS011;30721;49.380;7.736;2023-08-06T12:00:11;2.47;;;1.60;;
44985;SDS011;30721;49.380;7.736;2023-08-06T12:02:38;1.25;;;0.88;;
44985;SDS011;30721;49.380;7.736;2023-08-06T12:05:10;2.75;;;1.55;;
44985;SDS011;30721;49.380;7.736;2023-08-06T12:07:38;2.67;;;1.23;;
44985;SDS011;30721;49.380;7.736;2023-08-06T12:10:05;2.30;;;1.20;;
44985;SDS011;30721;49.380;7.736;2023-08-06T12:12:31;1.67;;;1.40;;
44985;SDS011;30721;49.380;7.736;2023-08-06T12:14:56;2.65;;;1.13;;
44985;SDS011;30721;49.380;7.736;2023-08-06T12:17:25;1.20;;;1.10;;
44985;SDS011;30721;49.380;7.736;2023-08-06T12:19:51;2.92;;;1.25;;
44985;SDS011;30721;49.380;7.736;2023-08-06T12:22:16;1.80;;;1.10;;
44985;SDS011;30721;49.380;7.736;2023-08-06T12:24:42;1.00;;;0.80;;
44985;SDS011;30721;49.380;7.736;2023-08-06T12:27:08;1.00;;;0.90;;
44985;SDS011;30721;49.380;7.736;2023-08-06T12:29:43;1.00;;;0.85;;
44985;SDS011;30721;49.380;7.736;2023-08-06T12:32:10;1.30;;;0.75;;
44985;SDS011;30721;49.380;7.736;2023-08-06T12:34:37;0.60;;;0.60;;
44985;SDS011;30721;49.380;7.736;2023-08-06T12:37:04;1.98;;;0.70;;
44985;SDS011;30721;49.380;7.736;2023-08-06T12:39:29;1.52;;;0.80;;
44985;SDS011;30721;49.380;7.736;2023-08-06T12:41:56;0.63;;;0.60;;
44985;SDS011;30721;49.380;7.736;2023-08-06T12:44:23;2.42;;;1.00;;
44985;SDS011;30721;49.380;7.736;2023-08-06T12:46:49;1.17;;;0.50;;
44985;SDS011;30721;49.380;7.736;2023-08-06T12:49:18;0.70;;;0.70;;
44985;SDS011;30721;49.380;7.736;2023-08-06T12:51:46;1.33;;;0.60;;
44985;SDS011;30721;49.380;7.736;2023-08-06T12:54:12;0.60;;;0.60;;
44985;SDS011;30721;49.380;7.736;2023-08-06T12:56:37;1.60;;;0.98;;
44985;SDS011;30721;49.380;7.736;2023-08-06T12:59:02;0.70;;;0.60;;
44985;SDS011;30721;49.380;7.736;2023-08-06T13:01:28;0.90;;;0.60;;
44985;SDS011;30721;49.380;7.736;2023-08-06T13:03:53;0.80;;;0.60;;
44985;SDS011;30721;49.380;7.736;2023-08-06T13:06:18;1.17;;;0.82;;
44985;SDS011;30721;49.380;7.736;2023-08-06T13:08:44;0.68;;;0.63;;
44985;SDS011;30721;49.380;7.736;2023-08-06T13:11:09;0.88;;;0.60;;
44985;SDS011;30721;49.380;7.736;2023-08-06T13:13:35;1.00;;;0.70;;
44985;SDS011;30721;49.380;7.736;2023-08-06T13:16:00;1.17;;;0.70;;
44985;SDS011;30721;49.380;7.736;2023-08-06T13:18:26;1.38;;;0.80;;
44985;SDS011;30721;49.380;7.736;2023-08-06T13:20:55;1.63;;;0.90;;
44985;SDS011;30721;49.380;7.736;2023-08-06T13:23:20;1.50;;;0.90;;
44985;SDS011;30721;49.380;7.736;2023-08-06T13:25:46;0.93;;;0.85;;
44985;SDS011;30721;49.380;7.736;2023-08-06T13:28:11;1.45;;;0.90;;
44985;SDS011;30721;49.380;7.736;2023-08-06T13:30:38;1.85;;;1.17;;
44985;SDS011;30721;49.380;7.736;2023-08-06T13:33:09;0.80;;;0.80;;
44985;SDS011;30721;49.380;7.736;2023-08-06T13:35:35;1.05;;;1.02;;
44985;SDS011;30721;49.380;7.736;2023-08-06T13:38:00;1.83;;;0.90;;
44985;SDS011;30721;49.380;7.736;2023-08-06T13:40:29;1.83;;;0.90;;
44985;SDS011;30721;49.380;7.736;2023-08-06T13:42:57;2.60;;;0.80;;
44985;SDS011;30721;49.380;7.736;2023-08-06T13:45:22;0.98;;;0.90;;
44985;SDS011;30721;49.380;7.736;2023-08-06T13:47:48;1.23;;;0.70;;
44985;SDS011;30721;49.380;7.736;2023-08-06T13:50:13;0.80;;;0.60;;
44985;SDS011;30721;49.380;7.736;2023-08-06T13:52:39;1.58;;;1.08;;
44985;SDS011;30721;49.380;7.736;2023-08-06T13:55:04;1.23;;;0.70;;
44985;SDS011;30721;49.380;7.736;2023-08-06T13:57:30;1.50;;;1.00;;
44985;SDS011;30721;49.380;7.736;2023-08-06T13:59:56;1.60;;;1.00;;
44985;SDS011;30721;49.380;7.736;2023-08-06T14:02:22;1.27;;;1.00;;
44985;SDS011;30721;49.380;7.736;2023-08-06T14:04:47;1.77;;;1.13;;
44985;SDS011;30721;49.380;7.736;2023-08-06T14:07:13;1.70;;;1.20;;
44985;SDS011;30721;49.380;7.736;2023-08-06T14:09:38;1.42;;;1.33;;
44985;SDS011;30721;49.380;7.736;2023-08-06T14:12:05;1.67;;;1.20;;
44985;SDS011;30721;49.380;7.736;2023-08-06T14:14:31;1.05;;;0.95;;
44985;SDS011;30721;49.380;7.736;2023-08-06T14:16:56;1.33;;;1.23;;
44985;SDS011;30721;49.380;7.736;2023-08-06T14:19:21;1.33;;;1.20;;
44985;SDS011;30721;49.380;7.736;2023-08-06T14:21:47;1.88;;;1.40;;
44985;SDS011;30721;49.380;7.736;2023-08-06T14:24:12;1.77;;;1.00;;
44985;SDS011;30721;49.380;7.736;2023-08-06T14:26:38;1.88;;;1.30;;
44985;SDS011;30721;49.380;7.736;2023-08-06T14:29:03;1.90;;;1.20;;
44985;SDS011;30721;49.380;7.736;2023-08-06T14:31:29;1.15;;;0.93;;
44985;SDS011;30721;49.380;7.736;2023-08-06T14:33:54;1.15;;;1.00;;
44985;SDS011;30721;49.380;7.736;2023-08-06T14:36:20;2.67;;;1.33;;
44985;SDS011;30721;49.380;7.736;2023-08-06T14:38:45;0.80;;;0.80;;
44985;SDS011;30721;49.380;7.736;2023-08-06T14:41:10;1.85;;;0.90;;
44985;SDS011;30721;49.380;7.736;2023-08-06T14:43:36;1.23;;;0.90;;
44985;SDS011;30721;49.380;7.736;2023-08-06T14:46:01;1.20;;;1.00;;
44985;SDS011;30721;49.380;7.736;2023-08-06T14:48:27;1.33;;;0.90;;
44985;SDS011;30721;49.380;7.736;2023-08-06T14:50:53;1.02;;;0.90;;
44985;SDS011;30721;49.380;7.736;2023-08-06T14:53:19;1.10;;;0.82;;
44985;SDS011;30721;49.380;7.736;2023-08-06T14:55:44;1.60;;;0.60;;
44985;SDS011;30721;49.380;7.736;2023-08-06T14:58:09;2.00;;;0.98;;
44985;SDS011;30721;49.380;7.736;2023-08-06T15:00:35;1.17;;;0.90;;
44985;SDS011;30721;49.380;7.736;2023-08-06T15:03:00;1.60;;;0.90;;